sensor_id;sensor_type;location;lat;lon;timestamp;pressure;altitude;pressure_sealevel;temperature;humidity
30744;BME280;17486;46.738;7.622;2023-12-28T00:00:13;95650.75;;;2.52;58.87
30744;BME280;17486;46.738;7.622;2023-12-28T00:02:38;95654.91;;;2.59;59.01
30744;BME280;17486;46.738;7.622;2023-12-28T00:05:06;95661.94;;;2.44;58.68
30744;BME280;17486;46.738;7.622;2023-12-28T00:07:31;95655.84;;;2.53;59.00
30744;BME280;17486;46.738;7.622;2023-12-28T00:09:57;95675.56;;;2.49;58.66
30744;BME280;17486;46.738;7.622;2023-12-28T00:12:22;95669.63;;;2.44;59.11
30744;BME280;17486;46.738;7.622;2023-12-28T00:14:48;95650.03;;;2.37;58.73
30744;BME280;17486;46.738;7.622;2023-12-28T00:17:14;95671.41;;;2.38;59.06
30744;BME280;17486;46.738;7.622;2023-12-28T00:19:39;95658.56;;;2.39;59.06
30744;BME280;17486;46.738;7.622;2023-12-28T00:22:04;95669.69;;;2.38;59.65
30744;BME280;17486;46.738;7.622;2023-12-28T00:24:30;95668.78;;;2.44;59.38
30744;BME280;17486;46.738;7.622;2023-12-28T00:26:55;95680.75;;;2.46;59.23
30744;BME280;17486;46.738;7.622;2023-12-28T00:29:20;95666.25;;;2.41;59.22
30744;BME280;17486;46.738;7.622;2023-12-28T00:31:46;95689.25;;;2.48;59.14
30744;BME280;17486;46.738;7.622;2023-12-28T00:34:11;95661.97;;;2.41;58.95
30744;BME280;17486;46.738;7.622;2023-12-28T00:36:36;95679.91;;;2.43;58.97
30744;BME280;17486;46.738;7.622;2023-12-28T00:39:02;95673.94;;;2.41;59.01
30744;BME280;17486;46.738;7.622;2023-12-28T00:41:28;95680.78;;;2.42;59.03
30744;BME280;17486;46.738;7.622;2023-12-28T00:43:53;95661.13;;;2.39;59.05
30744;BME280;17486;46.738;7.622;2023-12-28T00:46:19;95663.69;;;2.39;58.87
30744;BME280;17486;46.738;7.622;2023-12-28T00:48:44;95671.44;;;2.36;58.78
30744;BME280;17486;46.738;7.622;2023-12-28T00:51:09;95670.63;;;2.31;59.03
30744;BME280;17486;46.738;7.622;2023-12-28T00:53:35;95669.81;;;2.27;59.17
30744;BME280;17486;46.738;7.622;2023-12-28T00:56:00;95673.22;;;2.29;59.04
30744;BME280;17486;46.738;7.622;2023-12-28T00:58:25;95663.78;;;2.30;59.34
30744;BME280;17486;46.738;7.622;2023-12-28T01:00:51;95680.03;;;2.30;59.36
30744;BME280;17486;46.738;7.622;2023-12-28T01:03:19;95662.88;;;2.36;59.02
30744;BME280;17486;46.738;7.622;2023-12-28T01:05:45;95664.56;;;2.37;58.91
30744;BME280;17486;46.738;7.622;2023-12-28T01:08:12;95671.41;;;2.39;59.28
30744;BME280;17486;46.738;7.622;2023-12-28T01:10:38;95652.69;;;2.28;59.13
30744;BME280;17486;46.738;7.622;2023-12-28T01:13:03;95683.38;;;2.39;59.08
30744;BME280;17486;46.738;7.622;2023-12-28T01:15:28;95680.84;;;2.36;58.91
30744;BME280;17486;46.738;7.622;2023-12-28T01:17:54;95673.25;;;2.25;58.84
30744;BME280;17486;46.738;7.622;2023-12-28T01:20:19;95684.47;;;2.18;59.01
30744;BME280;17486;46.738;7.622;2023-12-28T01:22:45;95689.59;;;2.14;59.10
30744;BME280;17486;46.738;7.622;2023-12-28T01:25:10;95687.91;;;2.13;59.35
30744;BME280;17486;46.738;7.622;2023-12-28T01:27:35;95687.06;;;2.11;59.64
30744;BME280;17486;46.738;7.622;2023-12-28T01:30:01;95705.91;;;2.10;59.53
30744;BME280;17486;46.738;7.622;2023-12-28T01:32:26;95688.81;;;2.08;59.32
30744;BME280;17486;46.738;7.622;2023-12-28T01:34:52;95709.41;;;2.00;59.83
30744;BME280;17486;46.738;7.622;2023-12-28T01:37:17;95703.47;;;1.95;59.56
30744;BME280;17486;46.738;7.622;2023-12-28T01:39:42;95716.25;;;1.99;59.98
30744;BME280;17486;46.738;7.622;2023-12-28T01:42:08;95719.63;;;2.05;60.02
30744;BME280;17486;46.738;7.622;2023-12-28T01:44:34;95720.50;;;2.02;59.93
30744;BME280;17486;46.738;7.622;2023-12-28T01:47:00;95717.16;;;1.92;60.15
30744;BME280;17486;46.738;7.622;2023-12-28T01:49:25;95712.84;;;2.01;60.25
30744;BME280;17486;46.738;7.622;2023-12-28T01:51:51;95718.84;;;1.98;60.51
30744;BME280;17486;46.738;7.622;2023-12-28T01:54:16;95734.25;;;1.95;60.28
30744;BME280;17486;46.738;7.622;2023-12-28T01:56:43;95720.56;;;1.96;60.34
30744;BME280;17486;46.738;7.622;2023-12-28T01:59:09;95732.56;;;1.91;60.38
30744;BME280;17486;46.738;7.622;2023-12-28T02:01:35;95725.72;;;1.90;60.58
30744;BME280;17486;46.738;7.622;2023-12-28T02:04:00;95729.25;;;1.81;60.55
30744;BME280;17486;46.738;7.622;2023-12-28T02:06:26;95730.94;;;1.79;60.96
30744;BME280;17486;46.738;7.622;2023-12-28T02:08:51;95731.00;;;1.71;61.18
30744;BME280;17486;46.738;7.622;2023-12-28T02:11:18;95753.22;;;1.72;61.04
30744;BME280;17486;46.738;7.622;2023-12-28T02:13:44;95746.38;;;1.71;61.31
30744;BME280;17486;46.738;7.622;2023-12-28T02:16:17;95757.47;;;1.75;61.11
30744;BME280;17486;46.738;7.622;2023-12-28T02:18:50;95748.94;;;1.73;61.60
30744;BME280;17486;46.738;7.622;2023-12-28T02:21:17;95754.06;;;1.73;60.97
30744;BME280;17486;46.738;7.622;2023-12-28T02:23:49;95752.31;;;1.78;60.85
30744;BME280;17486;46.738;7.622;2023-12-28T02:26:16;95719.97;;;1.61;61.15
30744;BME280;17486;46.738;7.622;2023-12-28T02:28:42;95731.00;;;1.71;61.39
30744;BME280;17486;46.738;7.622;2023-12-28T02:31:12;95728.47;;;1.65;61.26
30744;BME280;17486;46.738;7.622;2023-12-28T02:33:49;95752.31;;;1.78;60.90
30744;BME280;17486;46.738;7.622;2023-12-28T02:36:18;95747.16;;;1.79;60.96
30744;BME280;17486;46.738;7.622;2023-12-28T02:38:48;95736.94;;;1.81;60.89
30744;BME280;17486;46.738;7.622;2023-12-28T02:41:14;95748.88;;;1.82;60.75
30744;BME280;17486;46.738;7.622;2023-12-28T02:43:40;95705.47;;;1.59;60.91
30744;BME280;17486;46.738;7.622;2023-12-28T02:46:06;95748.81;;;1.88;61.11
30744;BME280;17486;46.738;7.622;2023-12-28T02:48:31;95732.63;;;1.81;60.43
30744;BME280;17486;46.738;7.622;2023-12-28T02:50:56;95748.03;;;1.81;60.87
30744;BME280;17486;46.738;7.622;2023-12-28T02:53:22;95751.44;;;1.80;60.91
30744;BME280;17486;46.738;7.622;2023-12-28T02:55:47;95752.31;;;1.82;60.73
30744;BME280;17486;46.738;7.622;2023-12-28T02:58:12;95748.03;;;1.80;60.51
30744;BME280;17486;46.738;7.622;2023-12-28T03:00:38;95760.00;;;1.79;60.63
30744;BME280;17486;46.738;7.622;2023-12-28T03:03:03;95757.44;;;1.82;60.28
30744;BME280;17486;46.738;7.622;2023-12-28T03:05:29;95745.50;;;1.75;60.13
30744;BME280;17486;46.738;7.622;2023-12-28T03:07:54;95759.19;;;1.73;60.48
30744;BME280;17486;46.738;7.622;2023-12-28T03:10:21;95753.22;;;1.72;60.55
30744;BME280;17486;46.738;7.622;2023-12-28T03:12:46;95750.66;;;1.72;60.75
30744;BME280;17486;46.738;7.622;2023-12-28T03:15:12;95749.84;;;1.67;60.80
30744;BME280;17486;46.738;7.622;2023-12-28T03:17:38;95763.47;;;1.72;60.63
30744;BME280;17486;46.738;7.622;2023-12-28T03:20:03;95723.38;;;1.62;60.24
30744;BME280;17486;46.738;7.622;2023-12-28T03:22:29;95754.97;;;1.67;60.51
30744;BME280;17486;46.738;7.622;2023-12-28T03:24:54;95754.06;;;1.74;60.59
30744;BME280;17486;46.738;7.622;2023-12-28T03:27:20;95742.25;;;1.55;60.54
30744;BME280;17486;46.738;7.622;2023-12-28T03:29:45;95761.84;;;1.62;60.69
30744;BME280;17486;46.738;7.622;2023-12-28T03:32:11;95731.97;;;1.56;60.93
30744;BME280;17486;46.738;7.622;2023-12-28T03:34:36;95746.50;;;1.53;60.68
30744;BME280;17486;46.738;7.622;2023-12-28T03:37:02;95744.81;;;1.55;60.73
30744;BME280;17486;46.738;7.622;2023-12-28T03:39:27;95731.97;;;1.53;61.05
30744;BME280;17486;46.738;7.622;2023-12-28T03:41:53;95740.53;;;1.51;61.02
30744;BME280;17486;46.738;7.622;2023-12-28T03:44:21;95741.41;;;1.49;61.31
30744;BME280;17486;46.738;7.622;2023-12-28T03:46:48;95724.31;;;1.45;61.31
30744;BME280;17486;46.738;7.622;2023-12-28T03:49:17;95707.38;;;1.29;61.22
30744;BME280;17486;46.738;7.622;2023-12-28T03:51:43;95722.59;;;1.51;61.41
30744;BME280;17486;46.738;7.622;2023-12-28T03:54:08;95725.97;;;1.56;61.14
30744;BME280;17486;46.738;7.622;2023-12-28T03:56:34;95740.47;;;1.61;61.41
30744;BME280;17486;46.738;7.622;2023-12-28T03:59:01;95732.75;;;1.66;61.22
30744;BME280;17486;46.738;7.622;2023-12-28T04:01:26;95700.38;;;1.53;61.20
30744;BME280;17486;46.738;7.622;2023-12-28T04:03:51;95730.19;;;1.66;61.27
30744;BME280;17486;46.738;7.622;2023-12-28T04:06:17;95731.00;;;1.71;61.12
30744;BME280;17486;46.738;7.622;2023-12-28T04:08:42;95754.94;;;1.70;60.94
30744;BME280;17486;46.738;7.622;2023-12-28T04:11:08;95748.09;;;1.71;61.11
30744;BME280;17486;46.738;7.622;2023-12-28T04:13:35;95730.22;;;1.58;60.92
30744;BME280;17486;46.738;7.622;2023-12-28T04:16:00;95751.50;;;1.74;60.78
30744;BME280;17486;46.738;7.622;2023-12-28T04:18:26;95766.88;;;1.73;60.94
30744;BME280;17486;46.738;7.622;2023-12-28T04:20:51;95746.38;;;1.73;60.80
30744;BME280;17486;46.738;7.622;2023-12-28T04:23:16;95759.13;;;1.80;60.50
30744;BME280;17486;46.738;7.622;2023-12-28T04:25:42;95748.03;;;1.80;60.49
30744;BME280;17486;46.738;7.622;2023-12-28T04:28:07;95756.59;;;1.77;60.49
30744;BME280;17486;46.738;7.622;2023-12-28T04:30:33;95748.06;;;1.78;60.55
30744;BME280;17486;46.738;7.622;2023-12-28T04:33:02;95753.16;;;1.81;60.20
30744;BME280;17486;46.738;7.622;2023-12-28T04:35:28;95744.63;;;1.81;60.49
30744;BME280;17486;46.738;7.622;2023-12-28T04:37:54;95736.91;;;1.79;60.56
30744;BME280;17486;46.738;7.622;2023-12-28T04:40:19;95736.13;;;1.76;60.26
30744;BME280;17486;46.738;7.622;2023-12-28T04:42:44;95746.38;;;1.73;60.29
30744;BME280;17486;46.738;7.622;2023-12-28T04:45:10;95723.34;;;1.65;60.31
30744;BME280;17486;46.738;7.622;2023-12-28T04:47:36;95736.22;;;1.59;60.54
30744;BME280;17486;46.738;7.622;2023-12-28T04:50:02;95715.81;;;1.43;60.61
30744;BME280;17486;46.738;7.622;2023-12-28T04:52:28;95722.56;;;1.57;60.79
30744;BME280;17486;46.738;7.622;2023-12-28T04:54:53;95737.13;;;1.55;61.20
30744;BME280;17486;46.738;7.622;2023-12-28T04:57:19;95716.63;;;1.48;60.83
30744;BME280;17486;46.738;7.622;2023-12-28T04:59:44;95731.09;;;1.60;61.10
30744;BME280;17486;46.738;7.622;2023-12-28T05:02:10;95737.91;;;1.63;60.74
30744;BME280;17486;46.738;7.622;2023-12-28T05:04:38;95730.19;;;1.64;60.67
30744;BME280;17486;46.738;7.622;2023-12-28T05:07:04;95740.44;;;1.64;61.06
30744;BME280;17486;46.738;7.622;2023-12-28T05:09:29;95731.13;;;1.57;61.26
30744;BME280;17486;46.738;7.622;2023-12-28T05:11:55;95728.50;;;1.62;61.34
30744;BME280;17486;46.738;7.622;2023-12-28T05:14:20;95731.06;;;1.67;62.03
30744;BME280;17486;46.738;7.622;2023-12-28T05:16:45;95734.41;;;1.73;62.49
30744;BME280;17486;46.738;7.622;2023-12-28T05:19:11;95729.25;;;1.76;62.28
30744;BME280;17486;46.738;7.622;2023-12-28T05:21:36;95729.22;;;1.82;62.19
30744;BME280;17486;46.738;7.622;2023-12-28T05:24:01;95732.63;;;1.81;61.91
30744;BME280;17486;46.738;7.622;2023-12-28T05:26:27;95727.47;;;1.85;62.00
30744;BME280;17486;46.738;7.622;2023-12-28T05:28:52;95724.06;;;1.86;61.83
30744;BME280;17486;46.738;7.622;2023-12-28T05:31:18;95711.38;;;1.69;61.84
30744;BME280;17486;46.738;7.622;2023-12-28T05:33:43;95721.53;;;1.81;61.90
30744;BME280;17486;46.738;7.622;2023-12-28T05:36:08;95711.28;;;1.81;61.98
30744;BME280;17486;46.738;7.622;2023-12-28T05:38:34;95711.31;;;1.75;61.89
30744;BME280;17486;46.738;7.622;2023-12-28T05:40:59;95714.78;;;1.68;62.00
30744;BME280;17486;46.738;7.622;2023-12-28T05:43:25;95691.03;;;1.47;61.72
30744;BME280;17486;46.738;7.622;2023-12-28T05:45:50;95731.91;;;1.65;62.23
30744;BME280;17486;46.738;7.622;2023-12-28T05:48:16;95734.44;;;1.72;61.76
30744;BME280;17486;46.738;7.622;2023-12-28T05:50:41;95734.44;;;1.67;62.14
30744;BME280;17486;46.738;7.622;2023-12-28T05:53:06;95737.88;;;1.64;62.02
30744;BME280;17486;46.738;7.622;2023-12-28T05:55:32;95723.41;;;1.60;61.91
30744;BME280;17486;46.738;7.622;2023-12-28T05:57:57;95719.09;;;1.61;61.70
30744;BME280;17486;46.738;7.622;2023-12-28T06:00:22;95720.84;;;1.60;61.71
30744;BME280;17486;46.738;7.622;2023-12-28T06:02:48;95725.94;;;1.62;61.79
30744;BME280;17486;46.738;7.622;2023-12-28T06:05:17;95691.06;;;1.41;61.78
30744;BME280;17486;46.738;7.622;2023-12-28T06:07:42;95715.72;;;1.59;62.00
30744;BME280;17486;46.738;7.622;2023-12-28T06:10:08;95712.28;;;1.63;61.92
30744;BME280;17486;46.738;7.622;2023-12-28T06:12:34;95721.66;;;1.65;61.92
30744;BME280;17486;46.738;7.622;2023-12-28T06:14:59;95724.19;;;1.67;61.59
30744;BME280;17486;46.738;7.622;2023-12-28T06:17:24;95734.44;;;1.67;61.98
30744;BME280;17486;46.738;7.622;2023-12-28T06:19:50;95726.72;;;1.70;61.55
30744;BME280;17486;46.738;7.622;2023-12-28T06:22:15;95731.91;;;1.65;61.20
30744;BME280;17486;46.738;7.622;2023-12-28T06:24:41;95737.03;;;1.65;61.42
30744;BME280;17486;46.738;7.622;2023-12-28T06:27:06;95708.94;;;1.45;61.18
30744;BME280;17486;46.738;7.622;2023-12-28T06:29:32;95722.53;;;1.63;61.26
30744;BME280;17486;46.738;7.622;2023-12-28T06:31:57;95739.63;;;1.64;61.30
30744;BME280;17486;46.738;7.622;2023-12-28T06:34:22;95736.19;;;1.62;61.50
30744;BME280;17486;46.738;7.622;2023-12-28T06:36:48;95744.75;;;1.61;61.38
30744;BME280;17486;46.738;7.622;2023-12-28T06:39:13;95733.69;;;1.53;61.42
30744;BME280;17486;46.738;7.622;2023-12-28T06:41:39;95742.19;;;1.61;61.08
30744;BME280;17486;46.738;7.622;2023-12-28T06:44:04;95737.09;;;1.58;61.39
30744;BME280;17486;46.738;7.622;2023-12-28T06:46:29;95733.66;;;1.56;61.23
30744;BME280;17486;46.738;7.622;2023-12-28T06:48:55;95732.84;;;1.54;61.19
30744;BME280;17486;46.738;7.622;2023-12-28T06:51:21;95729.44;;;1.52;61.40
30744;BME280;17486;46.738;7.622;2023-12-28T06:53:47;95726.91;;;1.47;61.52
30744;BME280;17486;46.738;7.622;2023-12-28T06:56:14;95707.34;;;1.32;61.36
30744;BME280;17486;46.738;7.622;2023-12-28T06:58:40;95692.03;;;1.26;61.49
30744;BME280;17486;46.738;7.622;2023-12-28T07:01:06;95699.69;;;1.29;61.50
30744;BME280;17486;46.738;7.622;2023-12-28T07:03:32;95700.53;;;1.28;61.57
30744;BME280;17486;46.738;7.622;2023-12-28T07:06:01;95683.44;;;1.30;61.84
30744;BME280;17486;46.738;7.622;2023-12-28T07:08:28;95702.97;;;1.46;61.31
30744;BME280;17486;46.738;7.622;2023-12-28T07:10:53;95694.44;;;1.46;61.40
30744;BME280;17486;46.738;7.622;2023-12-28T07:13:18;95657.00;;;1.25;61.22
30744;BME280;17486;46.738;7.622;2023-12-28T07:15:44;95705.50;;;1.53;61.60
30744;BME280;17486;46.738;7.622;2023-12-28T07:18:09;95702.94;;;1.48;61.60
30744;BME280;17486;46.738;7.622;2023-12-28T07:20:34;95714.03;;;1.53;61.34
30744;BME280;17486;46.738;7.622;2023-12-28T07:23:00;95720.00;;;1.55;61.06
30744;BME280;17486;46.738;7.622;2023-12-28T07:25:25;95728.53;;;1.59;61.21
30744;BME280;17486;46.738;7.622;2023-12-28T07:27:51;95739.66;;;1.58;61.20
30744;BME280;17486;46.738;7.622;2023-12-28T07:30:16;95717.53;;;1.41;61.05
30744;BME280;17486;46.738;7.622;2023-12-28T07:32:43;95757.59;;;1.58;61.48
30744;BME280;17486;46.738;7.622;2023-12-28T07:35:08;95767.78;;;1.69;61.35
30744;BME280;17486;46.738;7.622;2023-12-28T07:37:34;95754.97;;;1.67;61.32
30744;BME280;17486;46.738;7.622;2023-12-28T07:40:00;95745.63;;;1.57;60.90
30744;BME280;17486;46.738;7.622;2023-12-28T07:42:26;95747.38;;;1.52;61.11
30744;BME280;17486;46.738;7.622;2023-12-28T07:44:51;95748.22;;;1.49;61.58
30744;BME280;17486;46.738;7.622;2023-12-28T07:47:16;95764.44;;;1.59;61.36
30744;BME280;17486;46.738;7.622;2023-12-28T07:49:42;95751.59;;;1.59;61.66
30744;BME280;17486;46.738;7.622;2023-12-28T07:52:07;95739.63;;;1.59;61.23
30744;BME280;17486;46.738;7.622;2023-12-28T07:54:33;95722.56;;;1.57;61.67
30744;BME280;17486;46.738;7.622;2023-12-28T07:56:59;95740.44;;;1.66;61.34
30744;BME280;17486;46.738;7.622;2023-12-28T07:59:24;95731.91;;;1.65;61.71
30744;BME280;17486;46.738;7.622;2023-12-28T08:01:50;95715.66;;;1.65;61.46
30744;BME280;17486;46.738;7.622;2023-12-28T08:04:15;95726.78;;;1.62;62.09
30744;BME280;17486;46.738;7.622;2023-12-28T08:06:40;95721.66;;;1.65;61.81
30744;BME280;17486;46.738;7.622;2023-12-28T08:09:06;95730.16;;;1.71;62.13
30744;BME280;17486;46.738;7.622;2023-12-28T08:11:31;95725.84;;;1.77;62.12
30744;BME280;17486;46.738;7.622;2023-12-28T08:13:56;95720.66;;;1.84;62.00
30744;BME280;17486;46.738;7.622;2023-12-28T08:16:22;95716.28;;;1.95;62.05
30744;BME280;17486;46.738;7.622;2023-12-28T08:18:47;95714.59;;;1.95;62.33
30744;BME280;17486;46.738;7.622;2023-12-28T08:21:13;95723.00;;;2.08;61.93
30744;BME280;17486;46.738;7.622;2023-12-28T08:23:39;95711.09;;;2.03;61.89
30744;BME280;17486;46.738;7.622;2023-12-28T08:26:04;95723.78;;;2.20;61.84
30744;BME280;17486;46.738;7.622;2023-12-28T08:28:30;95725.44;;;2.24;61.70
30744;BME280;17486;46.738;7.622;2023-12-28T08:30:56;95731.34;;;2.30;61.77
30744;BME280;17486;46.738;7.622;2023-12-28T08:33:22;95704.97;;;2.16;61.51
30744;BME280;17486;46.738;7.622;2023-12-28T08:35:47;95739.00;;;2.40;61.44
30744;BME280;17486;46.738;7.622;2023-12-28T08:38:13;95697.19;;;2.27;61.72
30744;BME280;17486;46.738;7.622;2023-12-28T08:40:38;95713.28;;;2.43;61.43
30744;BME280;17486;46.738;7.622;2023-12-28T08:43:03;95679.16;;;2.33;61.60
30744;BME280;17486;46.738;7.622;2023-12-28T08:45:29;95694.41;;;2.48;61.49
30744;BME280;17486;46.738;7.622;2023-12-28T08:47:55;95679.97;;;2.40;61.58
30744;BME280;17486;46.738;7.622;2023-12-28T08:50:21;95694.31;;;2.56;61.51
30744;BME280;17486;46.738;7.622;2023-12-28T08:52:46;95682.41;;;2.51;61.54
30744;BME280;17486;46.738;7.622;2023-12-28T08:55:12;95678.94;;;2.55;61.62
30744;BME280;17486;46.738;7.622;2023-12-28T08:57:37;95699.25;;;2.73;61.54
30744;BME280;17486;46.738;7.622;2023-12-28T09:00:05;95674.63;;;2.58;61.57
30744;BME280;17486;46.738;7.622;2023-12-28T09:02:30;95692.31;;;2.81;61.40
30744;BME280;17486;46.738;7.622;2023-12-28T09:04:58;95688.88;;;2.82;61.52
30744;BME280;17486;46.738;7.622;2023-12-28T09:07:23;95695.66;;;2.88;61.56
30744;BME280;17486;46.738;7.622;2023-12-28T09:09:49;95705.88;;;2.93;61.70
30744;BME280;17486;46.738;7.622;2023-12-28T09:12:14;95708.41;;;2.97;61.47
30744;BME280;17486;46.738;7.622;2023-12-28T09:14:39;95710.91;;;3.02;61.52
30744;BME280;17486;46.738;7.622;2023-12-28T09:17:05;95727.09;;;3.09;61.60
30744;BME280;17486;46.738;7.622;2023-12-28T09:19:30;95721.09;;;3.08;61.36
30744;BME280;17486;46.738;7.622;2023-12-28T09:21:55;95719.31;;;3.15;61.50
30744;BME280;17486;46.738;7.622;2023-12-28T09:24:21;95742.41;;;3.17;61.42
30744;BME280;17486;46.738;7.622;2023-12-28T09:26:47;95733.88;;;3.16;61.38
30744;BME280;17486;46.738;7.622;2023-12-28T09:29:12;95735.44;;;3.26;64.62
30744;BME280;17486;46.738;7.622;2023-12-28T09:31:39;95742.84;;;3.49;63.99
30744;BME280;17486;46.738;7.622;2023-12-28T09:34:04;95699.31;;;3.37;63.04
30744;BME280;17486;46.738;7.622;2023-12-28T09:36:30;95740.94;;;3.62;61.82
30744;BME280;17486;46.738;7.622;2023-12-28T09:38:55;95753.81;;;3.61;61.43
30744;BME280;17486;46.738;7.622;2023-12-28T09:41:25;95707.06;;;3.34;61.38
30744;BME280;17486;46.738;7.622;2023-12-28T09:44:02;95729.16;;;3.47;61.23
30744;BME280;17486;46.738;7.622;2023-12-28T09:46:31;95749.53;;;3.63;60.99
30744;BME280;17486;46.738;7.622;2023-12-28T09:48:58;95740.91;;;3.64;61.14
30744;BME280;17486;46.738;7.622;2023-12-28T09:51:24;95752.00;;;3.69;61.10
30744;BME280;17486;46.738;7.622;2023-12-28T09:53:50;95743.38;;;3.72;60.62
30744;BME280;17486;46.738;7.622;2023-12-28T09:56:16;95751.06;;;3.75;60.77
30744;BME280;17486;46.738;7.622;2023-12-28T09:58:42;95746.78;;;3.74;60.66
30744;BME280;17486;46.738;7.622;2023-12-28T10:01:09;95750.97;;;3.79;60.61
30744;BME280;17486;46.738;7.622;2023-12-28T10:03:36;95736.41;;;3.80;60.43
30744;BME280;17486;46.738;7.622;2023-12-28T10:06:01;95731.25;;;3.81;60.15
30744;BME280;17486;46.738;7.622;2023-12-28T10:08:27;95740.56;;;3.89;60.33
30744;BME280;17486;46.738;7.622;2023-12-28T10:10:52;95733.66;;;3.91;60.43
30744;BME280;17486;46.738;7.622;2023-12-28T10:13:20;95727.75;;;3.86;60.44
30744;BME280;17486;46.738;7.622;2023-12-28T10:15:46;95728.44;;;3.95;60.41
30744;BME280;17486;46.738;7.622;2023-12-28T10:18:12;95702.78;;;3.91;60.09
30744;BME280;17486;46.738;7.622;2023-12-28T10:20:38;95687.38;;;3.88;60.44
30744;BME280;17486;46.738;7.622;2023-12-28T10:23:04;95694.06;;;4.01;60.17
30744;BME280;17486;46.738;7.622;2023-12-28T10:25:31;95699.13;;;4.04;60.45
30744;BME280;17486;46.738;7.622;2023-12-28T10:27:57;95665.75;;;4.01;61.08
30744;BME280;17486;46.738;7.622;2023-12-28T10:30:24;95685.22;;;4.16;60.65
30744;BME280;17486;46.738;7.622;2023-12-28T10:32:49;95680.91;;;4.17;60.97
30744;BME280;17486;46.738;7.622;2023-12-28T10:35:15;95680.00;;;4.21;60.75
30744;BME280;17486;46.738;7.622;2023-12-28T10:37:41;95681.59;;;4.26;61.05
30744;BME280;17486;46.738;7.622;2023-12-28T10:40:07;95682.38;;;4.31;60.91
30744;BME280;17486;46.738;7.622;2023-12-28T10:43:06;95646.63;;;4.14;61.10
30744;BME280;17486;46.738;7.622;2023-12-28T10:45:32;95660.75;;;4.39;60.60
30744;BME280;17486;46.738;7.622;2023-12-28T10:48:08;95667.59;;;4.41;60.67
30744;BME280;17486;46.738;7.622;2023-12-28T10:55:50;95663.03;;;4.57;60.99
30744;BME280;17486;46.738;7.622;2023-12-28T10:58:23;95667.13;;;4.66;61.02
30744;BME280;17486;46.738;7.622;2023-12-28T11:00:59;95659.28;;;4.72;61.44
30744;BME280;17486;46.738;7.622;2023-12-28T11:03:30;95666.81;;;4.81;61.77
30744;BME280;17486;46.738;7.622;2023-12-28T11:05:58;95647.03;;;4.84;61.60
30744;BME280;17486;46.738;7.622;2023-12-28T11:08:23;95659.72;;;4.93;61.02
30744;BME280;17486;46.738;7.622;2023-12-28T11:10:50;95667.34;;;4.97;61.27
30744;BME280;17486;46.738;7.622;2023-12-28T11:13:19;95660.44;;;5.00;60.87
30744;BME280;17486;46.738;7.622;2023-12-28T11:15:47;95669.81;;;5.04;61.05
30744;BME280;17486;46.738;7.622;2023-12-28T11:18:14;95673.09;;;5.10;60.58
30744;BME280;17486;46.738;7.622;2023-12-28T11:20:41;95677.41;;;5.10;60.38
30744;BME280;17486;46.738;7.622;2023-12-28T11:23:08;95665.31;;;5.12;60.60
30744;BME280;17486;46.738;7.622;2023-12-28T11:25:34;95683.16;;;5.23;60.14
30744;BME280;17486;46.738;7.622;2023-12-28T11:28:08;95689.88;;;5.30;60.50
30744;BME280;17486;46.738;7.622;2023-12-28T11:30:33;95691.50;;;5.34;60.29
30744;BME280;17486;46.738;7.622;2023-12-28T11:32:59;95666.75;;;5.27;60.44
30744;BME280;17486;46.738;7.622;2023-12-28T11:35:33;95693.00;;;5.44;60.57
30744;BME280;17486;46.738;7.622;2023-12-28T11:37:59;95679.25;;;5.44;59.99
30744;BME280;17486;46.738;7.622;2023-12-28T11:40:29;95675.75;;;5.46;60.40
30744;BME280;17486;46.738;7.622;2023-12-28T11:42:54;95668.78;;;5.52;59.99
30744;BME280;17486;46.738;7.622;2023-12-28T11:45:22;95672.09;;;5.57;59.88
30744;BME280;17486;46.738;7.622;2023-12-28T11:48:01;95673.72;;;5.61;60.04
30744;BME280;17486;46.738;7.622;2023-12-28T11:50:27;95638.72;;;5.49;59.87
30744;BME280;17486;46.738;7.622;2023-12-28T11:52:52;95635.19;;;5.53;60.05
30744;BME280;17486;46.738;7.622;2023-12-28T11:55:24;95669.91;;;5.76;59.42
30744;BME280;17486;46.738;7.622;2023-12-28T11:57:49;95664.63;;;5.82;60.15
30744;BME280;17486;46.738;7.622;2023-12-28T12:00:15;95653.25;;;5.89;59.61
30744;BME280;17486;46.738;7.622;2023-12-28T12:02:43;95649.69;;;5.95;59.81
30744;BME280;17486;46.738;7.622;2023-12-28T12:05:12;95658.94;;;6.05;59.55
30744;BME280;17486;46.738;7.622;2023-12-28T12:07:39;95632.19;;;6.06;59.33
30744;BME280;17486;46.738;7.622;2023-12-28T12:10:05;95637.94;;;6.18;59.18
30744;BME280;17486;46.738;7.622;2023-12-28T12:12:31;95627.47;;;6.24;58.83
30744;BME280;17486;46.738;7.622;2023-12-28T12:14:56;95599.28;;;6.14;58.80
30744;BME280;17486;46.738;7.622;2023-12-28T12:17:22;95633.94;;;6.39;58.82
30744;BME280;17486;46.738;7.622;2023-12-28T12:19:47;95632.03;;;6.45;58.85
30744;BME280;17486;46.738;7.622;2023-12-28T12:22:16;95633.47;;;6.56;59.03
30744;BME280;17486;46.738;7.622;2023-12-28T12:24:44;95630.78;;;6.59;58.86
30744;BME280;17486;46.738;7.622;2023-12-28T12:27:09;95624.59;;;6.66;58.40
30744;BME280;17486;46.738;7.622;2023-12-28T12:29:35;95617.88;;;6.59;57.42
30744;BME280;17486;46.738;7.622;2023-12-28T12:32:00;95633.84;;;6.73;57.53
30744;BME280;17486;46.738;7.622;2023-12-28T12:34:28;95631.09;;;6.79;57.60
30744;BME280;17486;46.738;7.622;2023-12-28T12:36:54;95625.91;;;6.79;57.43
30744;BME280;17486;46.738;7.622;2023-12-28T12:39:19;95629.38;;;6.80;57.63
30744;BME280;17486;46.738;7.622;2023-12-28T12:41:48;95621.63;;;6.80;57.63
30744;BME280;17486;46.738;7.622;2023-12-28T12:44:14;95625.09;;;6.79;56.96
30744;BME280;17486;46.738;7.622;2023-12-28T12:46:39;95631.03;;;6.83;56.91
30744;BME280;17486;46.738;7.622;2023-12-28T12:49:05;95620.69;;;6.83;57.58
30744;BME280;17486;46.738;7.622;2023-12-28T12:51:30;95620.59;;;6.86;56.79
30744;BME280;17486;46.738;7.622;2023-12-28T12:54:00;95619.59;;;6.90;57.32
30744;BME280;17486;46.738;7.622;2023-12-28T12:56:26;95622.84;;;6.96;57.02
30744;BME280;17486;46.738;7.622;2023-12-28T12:58:53;95624.66;;;6.94;56.72
30744;BME280;17486;46.738;7.622;2023-12-28T13:01:18;95613.59;;;6.89;56.99
30744;BME280;17486;46.738;7.622;2023-12-28T13:03:45;95604.97;;;6.89;56.63
30744;BME280;17486;46.738;7.622;2023-12-28T13:06:10;95634.66;;;7.05;56.69
30744;BME280;17486;46.738;7.622;2023-12-28T13:08:36;95631.19;;;7.06;56.44